Time;durP1;ratioP1;P1;durP2;ratioP2;P2;SDS_P1;SDS_P2;PMS_P1;PMS_P2;Temp;Humidity;BMP_temperature;BMP_pressure;BME280_temperature;BME280_humidity;BME280_pressure;Samples;Min_cycle;Max_cycle;Signal;HPM_P1;HPM_P2
2022/09/21 18:13:30;;;;;;;3.80;2.70;;;;;;;10.36;83.62;100955.74;83066;1328;600541;-59
2022/09/21 18:16:01;;;;;;;4.50;2.90;;;;;;;10.37;83.69;100955.14;85132;1306;80886;-60
2022/09/21 18:18:21;;;;;;;4.70;2.70;;;;;;;10.39;83.71;100956.34;85098;1303;83058;-59
2022/09/21 18:20:56;;;;;;;3.70;2.60;;;;;;;10.41;83.85;100960.22;84989;1303;97516;-60
2022/09/21 18:23:19;;;;;;;3.90;2.50;;;;;;;10.45;83.94;100959.42;85129;1309;88149;-57
2022/09/21 18:25:32;;;;;;;3.40;2.40;;;;;;;10.49;83.97;100961.34;85137;1312;93568;-58
2022/09/21 18:27:47;;;;;;;3.90;2.30;;;;;;;10.54;84.02;100964.11;85103;1308;439378;-59
2022/09/21 18:30:09;;;;;;;4.30;2.30;;;;;;;10.60;84.13;100970.27;85391;1309;81879;-60
2022/09/21 18:33:08;;;;;;;4.50;2.60;;;;;;;10.62;84.12;100969.45;85333;1309;95801;-59
2022/09/21 18:35:35;;;;;;;4.20;2.40;;;;;;;10.67;84.18;100969.45;85372;1310;88735;-59
2022/09/21 18:37:58;;;;;;;4.90;2.60;;;;;;;10.71;84.12;100970.49;85204;1292;95205;-60
2022/09/21 18:40:24;;;;;;;5.40;3.10;;;;;;;10.75;84.10;100975.44;85393;1309;82207;-60
2022/09/21 18:42:47;;;;;;;4.00;3.00;;;;;;;10.77;84.07;100976.04;85431;1309;82332;-59
2022/09/21 18:45:07;;;;;;;4.20;2.90;;;;;;;10.84;84.14;100972.05;85628;1305;97398;-59
2022/09/21 18:47:25;;;;;;;4.80;3.10;;;;;;;10.87;83.99;100972.20;85527;1299;88106;-59
2022/09/21 18:49:54;;;;;;;5.40;2.70;;;;;;;10.86;83.99;100972.35;85552;1300;94416;-58
2022/09/21 18:52:18;;;;;;;4.20;2.90;;;;;;;10.89;84.00;100971.75;85319;1309;83781;-58
2022/09/21 18:54:33;;;;;;;5.40;3.30;;;;;;;10.91;83.90;100969.38;85511;1307;80830;-59
2022/09/21 18:56:52;;;;;;;5.20;3.00;;;;;;;10.92;84.01;100970.68;85521;1298;98005;-59
2022/09/21 18:59:05;;;;;;;3.80;2.70;;;;;;;10.98;83.94;100972.00;85622;1300;88149;-60
2022/09/21 19:01:20;;;;;;;4.10;2.90;;;;;;;10.98;83.99;100974.71;85614;1296;94091;-59
2022/09/21 19:03:32;;;;;;;3.80;2.70;;;;;;;10.97;84.04;100972.04;85497;1307;83881;-59
2022/09/21 19:05:51;;;;;;;3.90;3.00;;;;;;;10.97;84.00;100969.06;85610;1305;82976;-59
2022/09/21 19:08:11;;;;;;;4.50;3.00;;;;;;;10.98;83.94;100966.97;85632;1305;97613;-60
2022/09/21 19:10:34;;;;;;;5.90;3.80;;;;;;;10.98;83.96;100971.98;85617;1298;87628;-60
2022/09/21 19:13:10;;;;;;;6.00;3.60;;;;;;;10.97;83.92;100971.39;85632;1305;94858;-60
2022/09/21 19:15:28;;;;;;;4.40;3.60;;;;;;;10.94;84.00;100973.04;85613;1305;80739;-60
2022/09/21 19:18:01;;;;;;;5.60;3.40;;;;;;;10.94;84.10;100971.52;85869;1285;80868;-60
2022/09/21 19:21:00;;;;;;;6.10;3.60;;;;;;;10.97;84.16;100973.77;85790;1295;97917;-59
2022/09/21 19:26:33;;;;;;;5.90;3.50;;;;;;;11.00;84.04;100970.80;83178;1332;600775;-60
2022/09/21 19:29:15;;;;;;;6.60;4.00;;;;;;;10.97;84.21;100973.84;85306;1301;80884;-60
2022/09/21 19:31:28;;;;;;;7.70;4.20;;;;;;;11.02;84.07;100970.13;85204;1304;80777;-60
2022/09/21 19:33:40;;;;;;;6.20;3.70;;;;;;;10.97;84.12;100969.70;85181;1303;97747;-59
2022/09/21 19:35:52;;;;;;;5.60;3.60;;;;;;;11.00;84.16;100971.05;85185;1312;88010;-59
2022/09/21 19:38:04;;;;;;;5.30;3.40;;;;;;;10.98;84.10;100968.68;85233;1293;95943;-60
2022/09/21 19:40:15;;;;;;;6.50;3.80;;;;;;;10.96;84.20;100966.60;85026;1306;398190;-60
2022/09/21 19:42:37;;;;;;;4.50;3.40;;;;;;;10.94;84.29;100965.90;85453;1294;81620;-60
2022/09/21 19:45:06;;;;;;;5.30;4.00;;;;;;;10.87;84.57;100962.89;85482;1306;97415;-59
2022/09/21 19:47:28;;;;;;;4.70;3.50;;;;;;;10.87;84.48;100969.99;85705;1297;87571;-59
2022/09/21 19:49:48;;;;;;;5.90;4.60;;;;;;;10.86;84.61;100966.92;85740;1303;95116;-61
2022/09/21 19:52:11;;;;;;;7.80;4.80;;;;;;;10.89;84.55;100966.85;85699;1303;82711;-60
2022/09/21 20:01:56;;;;;;;6.10;3.30;;;;;;;10.86;84.81;100970.73;85680;1297;94656;-60
2022/09/21 20:04:07;;;;;;;6.20;3.60;;;;;;;10.84;85.04;100968.90;85626;1304;81443;-60
2022/09/21 20:06:22;;;;;;;5.60;3.40;;;;;;;10.86;84.95;100968.89;85810;1297;83893;-60
2022/09/21 20:08:41;;;;;;;6.90;3.60;;;;;;;10.84;84.93;100969.89;85781;1300;96731;-60
2022/09/21 20:11:14;;;;;;;6.20;3.50;;;;;;;10.86;84.91;100966.22;85781;1300;87591;-59
2022/09/21 20:13:41;;;;;;;4.80;3.20;;;;;;;10.82;84.98;100964.70;85789;1303;94879;-59
2022/09/21 20:15:58;;;;;;;4.60;3.70;;;;;;;10.82;85.02;100968.48;85808;1300;80980;-58
2022/09/21 20:18:17;;;;;;;5.10;3.60;;;;;;;10.82;84.93;100968.41;85790;1292;81036;-61
2022/09/21 20:20:28;;;;;;;5.90;3.60;;;;;;;10.75;85.08;100975.02;86105;1298;97506;-61
2022/09/21 20:22:41;;;;;;;5.90;4.00;;;;;;;10.73;85.12;100970.48;86125;1298;89049;-61
2022/09/21 20:24:58;;;;;;;6.50;3.90;;;;;;;10.72;85.31;100974.52;86099;1290;95002;-60
2022/09/21 20:27:26;;;;;;;5.80;3.50;;;;;;;10.69;85.29;100975.34;86078;1298;81427;-60
2022/09/21 20:29:37;;;;;;;5.80;3.40;;;;;;;10.64;85.47;100975.41;86126;1297;81782;-59
2022/09/21 20:31:47;;;;;;;5.80;3.80;;;;;;;10.60;85.58;100973.73;86112;1298;97540;-58
2022/09/21 20:33:57;;;;;;;4.60;3.20;;;;;;;10.58;85.38;100976.39;86114;1291;88070;-59
2022/09/21 20:36:14;;;;;;;4.20;3.30;;;;;;;10.58;85.11;100975.41;86056;1298;94376;-60
2022/09/21 20:38:25;;;;;;;5.90;3.50;;;;;;;10.55;85.04;100979.00;86054;1282;81955;-60
2022/09/21 20:40:36;;;;;;;4.20;3.00;;;;;;;10.50;85.02;100979.02;86042;1291;82271;-60
2022/09/21 20:42:46;;;;;;;4.90;3.30;;;;;;;10.44;85.03;100977.36;86021;1288;100034;-59
2022/09/21 20:44:58;;;;;;;6.40;4.00;;;;;;;10.40;84.99;100980.55;86031;1297;89916;-59
2022/09/21 20:47:08;;;;;;;5.00;3.50;;;;;;;10.37;84.98;100980.66;86073;1295;91937;-59
2022/09/21 20:49:22;;;;;;;6.60;4.20;;;;;;;10.32;84.80;100980.61;86046;1296;80004;-58
2022/09/21 20:51:34;;;;;;;4.60;3.50;;;;;;;10.22;84.81;100974.70;86051;1297;81231;-57
2022/09/21 20:53:44;;;;;;;5.20;3.80;;;;;;;10.17;84.90;100974.58;86012;1280;97373;-58
2022/09/21 20:56:01;;;;;;;6.50;4.00;;;;;;;10.08;84.84;100973.31;86006;1297;87737;-58
2022/09/21 20:58:12;;;;;;;6.40;3.90;;;;;;;9.99;84.79;100972.34;86014;1299;92899;-58
2022/09/21 21:00:25;;;;;;;5.30;3.50;;;;;;;9.91;84.74;100974.92;86022;1282;79272;-58
2022/09/21 21:02:39;;;;;;;5.70;3.60;;;;;;;9.86;84.77;100975.08;86055;1280;83113;-57
2022/09/21 21:04:50;;;;;;;6.80;4.10;;;;;;;9.80;84.63;100975.99;86042;1298;97993;-57
2022/09/21 21:06:59;;;;;;;7.40;3.60;;;;;;;9.72;84.55;100970.77;86072;1287;88656;-58
2022/09/21 21:09:10;;;;;;;6.90;3.70;;;;;;;9.66;84.65;100969.33;86060;1297;95843;-58
2022/09/21 21:11:20;;;;;;;5.10;3.90;;;;;;;9.62;84.57;100969.05;86071;1285;80950;-59
2022/09/21 21:13:32;;;;;;;4.80;4.00;;;;;;;9.55;84.51;100972.63;86071;1292;81751;-59
2022/09/21 21:15:41;;;;;;;5.90;4.10;;;;;;;9.49;84.57;100971.89;86081;1297;95758;-59
2022/09/21 21:17:53;;;;;;;6.50;4.40;;;;;;;9.42;84.62;100971.88;86070;1295;88890;-59
2022/09/21 21:20:05;;;;;;;6.00;4.20;;;;;;;9.34;84.66;100968.30;86048;1280;94296;-60
2022/09/21 21:22:17;;;;;;;6.80;4.60;;;;;;;9.29;84.68;100968.67;86061;1298;81364;-59
2022/09/21 21:24:42;;;;;;;7.80;5.50;;;;;;;9.24;84.74;100967.46;85986;1296;82893;-60
2022/09/21 21:26:52;;;;;;;7.80;5.40;;;;;;;9.18;84.80;100970.24;86022;1297;94768;-59
2022/09/21 21:29:03;;;;;;;7.50;5.80;;;;;;;9.14;84.92;100968.01;86017;1298;88111;-59
2022/09/21 21:31:14;;;;;;;7.80;5.50;;;;;;;9.09;84.92;100969.13;86067;1296;95521;-58
2022/09/21 21:33:23;;;;;;;9.10;6.60;;;;;;;9.04;84.99;100967.73;86049;1282;80210;-59
2022/09/21 21:35:35;;;;;;;7.90;6.20;;;;;;;9.02;85.21;100965.20;86039;1298;82785;-59
2022/09/21 21:37:47;;;;;;;5.80;5.10;;;;;;;9.03;85.21;100966.52;86052;1296;96065;-58
2022/09/21 21:39:59;;;;;;;6.50;5.00;;;;;;;9.00;85.34;100964.21;86036;1280;87802;-57
2022/09/21 21:42:10;;;;;;;5.90;4.50;;;;;;;8.96;85.24;100970.54;85943;1296;95179;-60
2022/09/21 21:44:21;;;;;;;9.50;6.10;;;;;;;8.95;85.25;100972.36;86020;1290;81964;-59
2022/09/21 21:46:30;;;;;;;6.60;4.30;;;;;;;8.90;85.33;100976.06;86102;1290;82832;-59
2022/09/21 21:48:40;;;;;;;6.00;4.20;;;;;;;8.86;85.46;100977.20;86025;1290;98627;-60
2022/09/21 21:51:00;;;;;;;6.80;4.00;;;;;;;8.84;85.50;100978.63;86059;1280;86998;-60
2022/09/21 21:53:10;;;;;;;5.70;4.30;;;;;;;8.80;85.52;100980.33;86074;1296;95285;-59
2022/09/21 21:55:20;;;;;;;4.90;3.70;;;;;;;8.79;85.58;100980.13;86074;1299;81535;-58
2022/09/21 21:57:30;;;;;;;7.20;3.70;;;;;;;8.78;85.67;100980.60;86042;1282;82483;-59
2022/09/21 21:59:39;;;;;;;5.70;3.80;;;;;;;8.78;85.63;100983.22;86062;1296;97826;-60
2022/09/21 22:01:55;;;;;;;5.80;4.10;;;;;;;8.78;85.79;100978.95;86071;1282;87335;-60
2022/09/21 22:04:08;;;;;;;4.50;3.30;;;;;;;8.80;85.73;100981.55;86044;1299;94461;-57
2022/09/21 22:06:18;;;;;;;6.70;4.60;;;;;;;8.82;85.71;100980.00;86061;1290;79878;-61
2022/09/21 22:08:29;;;;;;;9.50;5.70;;;;;;;8.84;85.80;100981.33;86056;1297;82560;-58
2022/09/21 22:10:39;;;;;;;12.10;8.70;;;;;;;8.85;85.90;100980.11;86038;1296;97035;-57
2022/09/21 22:12:53;;;;;;;14.30;9.50;;;;;;;8.88;85.92;100977.09;86027;1281;88704;-59
2022/09/21 22:15:05;;;;;;;18.50;13.00;;;;;;;8.88;86.05;100975.30;86060;1290;94650;-60
2022/09/21 22:17:14;;;;;;;18.10;12.30;;;;;;;8.89;86.13;100976.42;86077;1296;81895;-59
2022/09/21 22:19:25;;;;;;;15.00;11.40;;;;;;;8.90;86.15;100977.96;86022;1296;84202;-59
2022/09/21 22:21:42;;;;;;;13.90;10.20;;;;;;;8.94;86.23;100977.10;86037;1287;97182;-60
2022/09/21 22:23:57;;;;;;;15.10;10.30;;;;;;;8.97;86.33;100976.36;86046;1288;88807;-60
2022/09/21 22:26:10;;;;;;;11.80;8.30;;;;;;;9.02;86.30;100970.70;86031;1288;95179;-60
2022/09/21 22:28:20;;;;;;;9.80;6.40;;;;;;;9.03;86.33;100973.79;86064;1298;79961;-59
2022/09/21 22:30:30;;;;;;;7.10;5.00;;;;;;;9.01;86.38;100976.17;86013;1296;84572;-59
2022/09/21 22:32:42;;;;;;;6.20;4.30;;;;;;;9.01;86.57;100970.96;86095;1282;99429;-60
2022/09/21 22:34:53;;;;;;;6.00;3.80;;;;;;;9.07;86.77;100977.11;86048;1296;87736;-59
2022/09/21 22:37:05;;;;;;;6.30;3.20;;;;;;;9.07;86.85;100974.71;86088;1296;95731;-59
2022/09/21 22:39:16;;;;;;;4.50;3.10;;;;;;;9.10;86.91;100977.27;86065;1297;81305;-60
2022/09/21 22:41:32;;;;;;;4.50;2.80;;;;;;;9.09;86.89;100977.02;86099;1291;83211;-60
2022/09/21 22:43:42;;;;;;;4.70;3.70;;;;;;;9.09;86.92;100976.83;85974;1296;99576;-60
2022/09/21 22:45:54;;;;;;;4.90;3.40;;;;;;;9.10;86.74;100977.98;86076;1290;88170;-59
2022/09/21 22:48:04;;;;;;;5.60;3.70;;;;;;;9.08;86.64;100979.15;86062;1297;94674;-59
2022/09/21 22:50:14;;;;;;;6.10;4.30;;;;;;;9.04;86.67;100979.91;86045;1288;81887;-60
2022/09/21 22:52:24;;;;;;;6.00;4.30;;;;;;;9.01;86.69;100977.34;86068;1296;81616;-60
2022/09/21 22:54:33;;;;;;;6.90;4.80;;;;;;;9.03;86.65;100978.27;86047;1292;96707;-59
2022/09/21 22:56:44;;;;;;;5.70;4.30;;;;;;;8.97;86.65;100978.15;86026;1296;88375;-58
2022/09/21 22:58:55;;;;;;;5.00;3.70;;;;;;;8.91;86.60;100978.81;86064;1298;95580;-59
2022/09/21 23:01:11;;;;;;;5.10;4.00;;;;;;;8.84;86.67;100978.27;86009;1297;82418;-59
2022/09/21 23:03:21;;;;;;;5.20;3.60;;;;;;;8.82;86.68;100978.68;86030;1296;81603;-60
2022/09/21 23:05:31;;;;;;;4.20;3.30;;;;;;;8.77;86.73;100977.09;86029;1299;96566;-60
2022/09/21 23:07:41;;;;;;;6.40;4.40;;;;;;;8.74;86.74;100976.54;86021;1296;88926;-60
2022/09/21 23:09:51;;;;;;;3.20;2.80;;;;;;;8.70;86.68;100977.30;86053;1288;95121;-60
2022/09/21 23:12:04;;;;;;;4.90;2.90;;;;;;;8.66;86.76;100976.17;86035;1295;80035;-59
2022/09/21 23:14:15;;;;;;;4.50;3.00;;;;;;;8.64;86.60;100976.17;86069;1290;80396;-59
2022/09/21 23:16:26;;;;;;;4.30;3.20;;;;;;;8.61;86.54;100976.48;86061;1296;97399;-59
2022/09/21 23:18:36;;;;;;;4.10;3.10;;;;;;;8.59;86.60;100977.98;86122;1296;87410;-59
2022/09/21 23:20:55;;;;;;;5.00;2.80;;;;;;;8.57;86.68;100981.42;86056;1298;94270;-60
2022/09/21 23:23:05;;;;;;;6.60;3.10;;;;;;;8.54;86.63;100982.24;86053;1292;79692;-60
2022/09/21 23:25:16;;;;;;;3.90;3.00;;;;;;;8.50;86.65;100979.83;86079;1291;81720;-61
2022/09/21 23:27:25;;;;;;;5.10;3.20;;;;;;;8.43;86.65;100977.52;86059;1297;98894;-59
2022/09/21 23:29:38;;;;;;;4.20;3.00;;;;;;;8.38;86.54;100979.83;86058;1297;86224;-60
2022/09/21 23:31:48;;;;;;;3.60;2.70;;;;;;;8.34;86.48;100975.06;86010;1295;96036;-60
2022/09/21 23:33:59;;;;;;;5.00;3.10;;;;;;;8.25;86.47;100974.55;85952;1287;79421;-59
2022/09/21 23:36:11;;;;;;;4.10;2.80;;;;;;;8.21;86.37;100977.08;85975;1297;82801;-58
2022/09/21 23:38:20;;;;;;;5.20;2.70;;;;;;;8.16;86.42;100975.54;86034;1292;99370;-60
2022/09/21 23:41:29;;;;;;;4.40;3.00;;;;;;;8.11;86.41;100981.23;86015;1296;87231;-60
2022/09/21 23:43:42;;;;;;;4.10;2.90;;;;;;;8.07;86.49;100980.42;86055;1299;94835;-60
2022/09/21 23:45:50;;;;;;;3.60;3.00;;;;;;;8.02;86.50;100979.65;86036;1298;82503;-60
2022/09/21 23:48:00;;;;;;;4.10;2.50;;;;;;;7.97;86.51;100981.51;86081;1299;82768;-59
2022/09/21 23:50:12;;;;;;;4.20;2.70;;;;;;;7.90;86.53;100980.62;85996;1288;97655;-60
2022/09/21 23:52:23;;;;;;;4.40;2.90;;;;;;;7.84;86.47;100978.48;86065;1291;89064;-60
2022/09/21 23:54:34;;;;;;;5.00;3.40;;;;;;;7.84;86.46;100978.55;86063;1299;93530;-59
2022/09/21 23:56:44;;;;;;;4.60;2.90;;;;;;;7.81;86.42;100980.23;86057;1297;80742;-60
2022/09/21 23:58:55;;;;;;;3.80;2.60;;;;;;;7.77;86.55;100974.18;86074;1297;81612;-60
